createdAt,value
2022-09-12T00:01:13.619Z,80.40
2022-09-12T00:04:52.220Z,80.61
2022-09-12T00:08:30.129Z,80.57
2022-09-12T00:12:08.417Z,80.60
2022-09-12T00:15:45.466Z,80.64
2022-09-12T00:19:22.873Z,80.59
2022-09-12T00:23:01.230Z,80.30
2022-09-12T00:26:39.245Z,80.05
2022-09-12T00:30:16.701Z,79.66
2022-09-12T00:33:57.467Z,79.26
2022-09-12T00:37:35.493Z,78.97
2022-09-12T00:41:31.863Z,78.74
2022-09-12T00:45:23.328Z,78.47
2022-09-12T00:48:56.077Z,78.36
2022-09-12T00:52:57.057Z,78.25
2022-09-12T00:56:36.919Z,77.96
2022-09-12T01:00:17.639Z,77.23
2022-09-12T01:03:54.590Z,76.68
2022-09-12T01:07:39.863Z,76.04
2022-09-12T01:11:21.094Z,74.84
2022-09-12T01:14:58.709Z,73.65
2022-09-12T01:18:50.683Z,72.62
2022-09-12T01:22:28.338Z,71.64
2022-09-12T01:26:11.274Z,70.48
2022-09-12T01:30:16.536Z,69.40
2022-09-12T01:34:16.813Z,68.12
2022-09-12T01:38:04.791Z,66.27
2022-09-12T01:42:02.410Z,65.56
2022-09-12T01:46:00.713Z,64.39
2022-09-12T01:50:01.895Z,63.24
2022-09-12T01:53:48.332Z,62.25
2022-09-12T01:57:32.514Z,61.31
2022-09-12T02:01:27.743Z,60.50
2022-09-12T02:05:11.429Z,59.52
2022-09-12T02:08:57.812Z,59.33
2022-09-12T02:12:50.183Z,59.21
2022-09-12T02:16:37.283Z,59.09
2022-09-12T02:20:43.988Z,57.95
2022-09-12T02:24:21.815Z,57.50
2022-09-12T02:28:07.106Z,57.13
2022-09-12T02:31:52.266Z,56.94
2022-09-12T02:35:33.207Z,56.43
2022-09-12T02:39:10.186Z,56.16
2022-09-12T02:42:47.631Z,56.04
2022-09-12T02:46:41.137Z,55.72
2022-09-12T02:50:18.566Z,55.35
2022-09-12T02:53:56.366Z,55.22
2022-09-12T02:57:33.925Z,55.07
2022-09-12T03:01:26.827Z,54.29
2022-09-12T03:05:14.081Z,54.23
2022-09-12T03:08:55.930Z,53.46
2022-09-12T03:12:54.723Z,53.16
2022-09-12T03:17:05.233Z,53.08
2022-09-12T03:20:57.842Z,53.46
2022-09-12T03:24:43.379Z,52.81
2022-09-12T03:28:23.128Z,52.67
2022-09-12T03:32:01.056Z,52.69
2022-09-12T03:35:39.658Z,51.90
2022-09-12T03:39:17.614Z,51.31
2022-09-12T03:42:55.624Z,51.61
2022-09-12T03:46:33.744Z,51.16
2022-09-12T03:50:11.237Z,50.81
2022-09-12T03:53:49.268Z,50.35
2022-09-12T03:57:28.072Z,50.02
2022-09-12T04:01:14.476Z,50.10
2022-09-12T04:04:52.379Z,50.30
2022-09-12T04:08:29.970Z,49.68
2022-09-12T04:12:07.367Z,49.46
2022-09-12T04:15:56.963Z,49.36
2022-09-12T04:19:35.069Z,49.12
2022-09-12T04:23:11.999Z,48.85
2022-09-12T04:26:49.364Z,48.36
2022-09-12T04:30:28.276Z,47.97
2022-09-12T04:34:06.914Z,47.90
2022-09-12T04:37:44.038Z,47.47
2022-09-12T04:41:27.962Z,47.30
2022-09-12T04:45:06.885Z,47.25
2022-09-12T04:48:44.981Z,47.33
2022-09-12T04:52:22.997Z,47.28
2022-09-12T04:56:05.249Z,47.22
2022-09-12T04:59:43.028Z,47.26
2022-09-12T05:03:20.096Z,47.20
2022-09-12T05:06:57.053Z,46.94
2022-09-12T05:10:35.881Z,46.88
2022-09-12T05:14:13.273Z,47.19
2022-09-12T05:17:50.211Z,46.65
2022-09-12T05:21:46.905Z,46.04
2022-09-12T05:25:05.145Z,45.70
2022-09-12T05:28:43.551Z,45.95
2022-09-12T05:32:21.797Z,45.78
2022-09-12T05:35:59.346Z,45.82
2022-09-12T05:39:37.250Z,45.39
2022-09-12T05:43:14.990Z,45.34
2022-09-12T05:46:53.017Z,45.33
2022-09-12T05:50:30.974Z,45.04
2022-09-12T05:54:11.374Z,45.05
2022-09-12T05:57:48.565Z,44.38
2022-09-12T06:01:28.033Z,44.47
2022-09-12T06:05:08.607Z,43.95
2022-09-12T06:08:49.203Z,43.56
2022-09-12T06:12:29.708Z,43.65
2022-09-12T06:16:09.944Z,43.45
2022-09-12T06:19:47.444Z,43.18
2022-09-12T06:23:25.267Z,43.17
2022-09-12T06:27:02.976Z,43.39
2022-09-12T06:30:40.596Z,42.95
2022-09-12T06:34:18.400Z,42.81
2022-09-12T06:37:56.200Z,42.72
2022-09-12T06:41:34.838Z,42.71
2022-09-12T06:45:15.293Z,42.38
2022-09-12T06:48:55.793Z,42.46
2022-09-12T06:52:32.955Z,42.75
2022-09-12T06:56:17.268Z,42.61
2022-09-12T06:59:57.609Z,42.37
2022-09-12T07:03:36.994Z,42.58
2022-09-12T07:07:14.255Z,42.38
2022-09-12T07:10:51.562Z,42.18
2022-09-12T07:14:29.082Z,41.87
2022-09-12T07:18:07.561Z,41.78
2022-09-12T07:21:45.982Z,41.72
2022-09-12T07:25:23.479Z,41.82
2022-09-12T07:29:25.155Z,41.94
2022-09-12T07:32:59.001Z,42.13
2022-09-12T07:36:37.723Z,42.18
2022-09-12T07:40:15.682Z,42.17
2022-09-12T07:43:55.208Z,42.01
2022-09-12T07:47:33.504Z,42.30
2022-09-12T07:51:12.501Z,42.43
2022-09-12T07:54:50.266Z,42.55
2022-09-12T07:58:30.387Z,42.55
2022-09-12T08:02:16.813Z,42.60
2022-09-12T08:05:55.044Z,44.06
2022-09-12T08:09:33.002Z,45.93
2022-09-12T08:13:12.183Z,47.50
2022-09-12T08:16:49.335Z,47.96
2022-09-12T08:20:28.518Z,48.48
2022-09-12T08:24:07.752Z,49.67
2022-09-12T08:27:46.351Z,50.94
2022-09-12T08:31:26.534Z,51.70
2022-09-12T08:35:06.141Z,52.39
2022-09-12T08:38:45.990Z,52.79
2022-09-12T08:42:52.887Z,53.25
2022-09-12T08:46:42.424Z,53.79
2022-09-12T08:50:23.145Z,53.89
2022-09-12T08:54:04.696Z,54.46
2022-09-12T08:57:43.381Z,55.09
2022-09-12T09:01:31.025Z,55.21
2022-09-12T09:05:30.333Z,55.47
2022-09-12T09:09:19.251Z,55.93
2022-09-12T09:13:06.184Z,56.36
2022-09-12T09:16:46.730Z,56.60
2022-09-12T09:20:43.904Z,56.87
2022-09-12T09:24:28.406Z,57.04
2022-09-12T09:28:13.879Z,56.99
2022-09-12T09:32:00.588Z,56.82
2022-09-12T09:35:52.406Z,56.71
2022-09-12T09:39:36.831Z,56.41
2022-09-12T09:43:22.206Z,56.18
2022-09-12T09:47:01.702Z,56.20
2022-09-12T09:50:39.933Z,56.01
2022-09-12T09:54:23.482Z,55.85
2022-09-12T09:58:01.397Z,55.57
2022-09-12T10:01:48.022Z,55.19
2022-09-12T10:05:26.099Z,54.81
2022-09-12T10:09:15.564Z,55.03
2022-09-12T10:13:08.483Z,55.21
2022-09-12T10:16:52.473Z,55.16
2022-09-12T10:20:41.652Z,55.04
2022-09-12T10:24:28.078Z,54.81
2022-09-12T10:28:20.717Z,54.53
2022-09-12T10:32:02.204Z,54.60
2022-09-12T10:35:47.972Z,54.43
2022-09-12T10:39:26.447Z,54.34
2022-09-12T10:43:18.270Z,54.34
2022-09-12T10:46:59.107Z,54.22
2022-09-12T10:50:43.998Z,54.33
2022-09-12T10:54:26.308Z,54.01
2022-09-12T10:58:04.484Z,53.93
2022-09-12T11:01:47.021Z,53.80
2022-09-12T11:05:53.134Z,54.04
2022-09-12T11:09:40.174Z,54.22
2022-09-12T11:13:36.822Z,53.95
2022-09-12T11:17:36.344Z,53.91
2022-09-12T11:21:16.997Z,54.09
2022-09-12T11:25:13.369Z,54.15
2022-09-12T11:28:57.904Z,54.33
2022-09-12T11:33:09.638Z,54.08
2022-09-12T11:37:02.624Z,53.53
2022-09-12T11:40:43.532Z,53.33
2022-09-12T11:44:40.287Z,53.49
2022-09-12T11:48:30.027Z,53.57
2022-09-12T11:52:20.445Z,53.88
2022-09-12T11:56:08.342Z,53.81
2022-09-12T12:00:01.214Z,53.43
2022-09-12T12:03:44.203Z,52.77
2022-09-12T12:07:23.017Z,52.11
2022-09-12T12:11:03.758Z,52.18
2022-09-12T12:14:46.644Z,52.04
2022-09-12T12:18:32.412Z,52.04
2022-09-12T12:22:24.809Z,51.72
2022-09-12T12:26:04.013Z,51.17
2022-09-12T12:29:46.097Z,50.94
2022-09-12T12:33:27.010Z,50.55
2022-09-12T12:37:20.116Z,49.92
2022-09-12T12:41:43.136Z,50.27
2022-09-12T12:45:27.145Z,50.60
2022-09-12T12:49:28.454Z,50.83
2022-09-12T12:53:28.021Z,50.75
2022-09-12T12:57:20.496Z,50.47
2022-09-12T13:01:13.513Z,50.47
2022-09-12T13:04:52.801Z,50.49
2022-09-12T13:08:33.235Z,50.45
2022-09-12T13:12:18.977Z,50.39
2022-09-12T13:15:57.796Z,50.33
2022-09-12T13:19:38.112Z,50.45
2022-09-12T13:23:32.091Z,50.37
2022-09-12T13:27:25.542Z,50.16
2022-09-12T13:31:26.680Z,49.63
2022-09-12T13:35:25.887Z,49.61
2022-09-12T13:39:15.781Z,49.69
2022-09-12T13:43:09.418Z,49.69
2022-09-12T13:46:49.903Z,49.79
2022-09-12T13:50:37.514Z,50.18
2022-09-12T13:54:23.838Z,50.30
2022-09-12T13:58:07.657Z,50.23
2022-09-12T14:01:47.506Z,50.85
2022-09-12T14:05:26.985Z,50.36
2022-09-12T14:09:14.042Z,49.16
2022-09-12T14:12:51.595Z,45.41
2022-09-12T14:16:32.653Z,42.10
2022-09-12T14:20:16.607Z,39.02
2022-09-12T14:23:54.882Z,37.05
2022-09-12T14:27:40.913Z,35.17
2022-09-12T14:31:38.662Z,33.96
2022-09-12T14:35:20.446Z,34.45
2022-09-12T14:39:04.632Z,35.78
2022-09-12T14:42:42.726Z,37.90
2022-09-12T14:46:27.111Z,39.61
2022-09-12T14:50:16.318Z,41.42
2022-09-12T14:53:54.745Z,43.11
2022-09-12T14:57:40.722Z,44.57
2022-09-12T15:01:19.574Z,46.08
2022-09-12T15:05:09.405Z,47.26
2022-09-12T15:08:48.493Z,48.39
2022-09-12T15:12:27.163Z,49.29
2022-09-12T15:16:04.932Z,50.43
2022-09-12T15:19:43.002Z,51.78
2022-09-12T15:23:41.571Z,53.06
2022-09-12T15:27:20.191Z,54.23
2022-09-12T15:31:05.468Z,55.43
2022-09-12T15:34:43.407Z,56.41
2022-09-12T15:38:26.160Z,56.98
2022-09-12T15:42:06.056Z,58.17
2022-09-12T15:45:45.017Z,59.05
2022-09-12T15:49:23.041Z,60.21
2022-09-12T15:53:00.911Z,60.60
2022-09-12T15:56:38.705Z,61.49
2022-09-12T16:00:18.767Z,62.09
2022-09-12T16:03:57.152Z,62.76
2022-09-12T16:07:35.410Z,62.97
2022-09-12T16:11:25.973Z,62.82
2022-09-12T16:15:08.311Z,63.72
2022-09-12T16:18:41.225Z,64.01
2022-09-12T16:22:19.541Z,64.13
2022-09-12T16:26:01.585Z,64.53
2022-09-12T16:29:39.255Z,64.85
2022-09-12T16:33:17.051Z,65.16
2022-09-12T16:36:54.134Z,65.58
2022-09-12T16:40:32.349Z,66.32
2022-09-12T16:44:10.910Z,66.02
2022-09-12T16:47:48.678Z,66.66
2022-09-12T16:51:33.157Z,66.92
2022-09-12T16:55:10.322Z,67.08
2022-09-12T16:58:47.867Z,67.76
2022-09-12T17:02:24.837Z,67.68
2022-09-12T17:06:08.528Z,68.19
2022-09-12T17:09:47.985Z,68.22
2022-09-12T17:13:36.698Z,68.52
2022-09-12T17:17:23.903Z,69.05
2022-09-12T17:21:02.258Z,69.18
2022-09-12T17:24:40.320Z,69.69
2022-09-12T17:28:18.951Z,69.85
2022-09-12T17:31:56.969Z,70.35
2022-09-12T17:35:35.479Z,70.55
2022-09-12T17:39:14.345Z,70.91
2022-09-12T17:42:52.365Z,71.32
2022-09-12T17:46:34.384Z,71.39
2022-09-12T17:50:30.811Z,71.68
2022-09-12T17:54:16.207Z,72.10
2022-09-12T17:57:53.316Z,72.44
2022-09-12T18:01:30.824Z,72.54
2022-09-12T18:05:09.457Z,72.91
2022-09-12T18:08:47.265Z,73.08
2022-09-12T18:12:25.611Z,73.07
2022-09-12T18:16:08.408Z,73.09
2022-09-12T18:19:49.275Z,73.37
2022-09-12T18:23:31.384Z,72.81
2022-09-12T18:27:09.051Z,73.36
2022-09-12T18:30:47.328Z,73.88
2022-09-12T18:34:25.454Z,74.00
2022-09-12T18:38:02.648Z,74.38
2022-09-12T18:41:41.023Z,74.68
2022-09-12T18:45:19.410Z,75.14
2022-09-12T18:48:59.151Z,75.37
2022-09-12T18:52:37.166Z,75.48
2022-09-12T18:56:14.681Z,75.64
2022-09-12T18:59:52.721Z,75.73
2022-09-12T19:03:30.583Z,75.74
2022-09-12T19:07:09.273Z,75.72
2022-09-12T19:10:56.239Z,75.86
2022-09-12T19:14:33.697Z,76.17
2022-09-12T19:18:10.984Z,76.14
2022-09-12T19:21:48.907Z,75.69
2022-09-12T19:25:26.984Z,76.16
2022-09-12T19:29:08.632Z,76.86
2022-09-12T19:32:46.074Z,77.08
2022-09-12T19:36:44.306Z,77.48
2022-09-12T19:40:22.027Z,77.24
2022-09-12T19:44:02.527Z,77.04
2022-09-12T19:47:42.913Z,77.41
2022-09-12T19:51:18.073Z,77.02
2022-09-12T19:54:55.732Z,77.59
2022-09-12T19:58:41.638Z,77.63
2022-09-12T20:02:19.489Z,77.77
2022-09-12T20:06:05.304Z,76.94
2022-09-12T20:09:42.604Z,76.59
2022-09-12T20:13:21.241Z,76.79
2022-09-12T20:16:59.096Z,77.53
2022-09-12T20:20:37.355Z,77.10
2022-09-12T20:24:14.979Z,77.07
2022-09-12T20:28:00.139Z,77.30
2022-09-12T20:31:30.592Z,78.01
2022-09-12T20:35:09.399Z,78.26
2022-09-12T20:38:51.856Z,78.36
2022-09-12T20:42:31.375Z,78.58
2022-09-12T20:46:11.294Z,78.65
2022-09-12T20:49:48.839Z,78.69
2022-09-12T20:53:30.556Z,78.60
2022-09-12T20:57:10.293Z,78.62
2022-09-12T21:00:48.117Z,78.90
2022-09-12T21:04:25.066Z,78.57
2022-09-12T21:08:02.776Z,78.85
2022-09-12T21:11:40.654Z,78.97
2022-09-12T21:15:17.767Z,78.66
2022-09-12T21:18:58.484Z,78.87
2022-09-12T21:22:36.197Z,78.97
2022-09-12T21:26:13.958Z,78.87
2022-09-12T21:29:52.949Z,78.80
2022-09-12T21:33:30.664Z,78.70
2022-09-12T21:37:08.649Z,78.94
2022-09-12T21:40:47.302Z,79.00
2022-09-12T21:44:26.216Z,78.96
2022-09-12T21:48:05.464Z,78.60
2022-09-12T21:51:42.916Z,78.46
2022-09-12T21:55:20.115Z,78.44
2022-09-12T21:58:57.155Z,78.50
2022-09-12T22:02:34.253Z,78.11
2022-09-12T22:06:11.910Z,78.30
2022-09-12T22:09:50.370Z,79.02
2022-09-12T22:13:27.886Z,80.19
2022-09-12T22:17:09.677Z,80.58
2022-09-12T22:20:46.848Z,81.43
2022-09-12T22:24:25.261Z,81.52
2022-09-12T22:28:02.915Z,81.82
2022-09-12T22:31:40.721Z,81.29
2022-09-12T22:35:19.656Z,80.97
2022-09-12T22:38:57.854Z,80.61
2022-09-12T22:42:36.066Z,80.60
2022-09-12T22:46:13.853Z,80.44
2022-09-12T22:49:51.950Z,80.29
2022-09-12T22:53:29.664Z,80.03
2022-09-12T22:57:07.624Z,80.54
2022-09-12T23:00:47.605Z,81.36
2022-09-12T23:04:25.513Z,81.38
2022-09-12T23:08:03.820Z,81.83
2022-09-12T23:11:42.662Z,82.04
2022-09-12T23:15:19.808Z,81.74
2022-09-12T23:18:58.645Z,81.47
2022-09-12T23:22:37.073Z,81.40
2022-09-12T23:26:20.486Z,81.22
2022-09-12T23:30:01.366Z,81.01
2022-09-12T23:33:36.405Z,81.03
2022-09-12T23:37:13.478Z,81.06
2022-09-12T23:40:51.052Z,80.90
2022-09-12T23:44:28.868Z,80.79
2022-09-12T23:48:06.162Z,80.72
2022-09-12T23:51:43.444Z,81.01
2022-09-12T23:55:21.637Z,81.11
2022-09-12T23:58:59.793Z,81.62
